sensor_id;sensor_type;location;lat;lon;timestamp;temperature;humidity
50556;DHT22;36508;52.512;13.450;2023-04-30T00:01:11;10.00;99.90
50556;DHT22;36508;52.512;13.450;2023-04-30T00:03:36;9.90;99.90
50556;DHT22;36508;52.512;13.450;2023-04-30T00:06:02;9.80;99.90
50556;DHT22;36508;52.512;13.450;2023-04-30T00:08:27;9.80;99.90
50556;DHT22;36508;52.512;13.450;2023-04-30T00:10:54;9.80;99.90
50556;DHT22;36508;52.512;13.450;2023-04-30T00:13:20;9.80;99.90
50556;DHT22;36508;52.512;13.450;2023-04-30T00:15:46;9.90;99.90
50556;DHT22;36508;52.512;13.450;2023-04-30T00:18:12;9.80;99.90
50556;DHT22;36508;52.512;13.450;2023-04-30T00:20:38;9.60;99.90
50556;DHT22;36508;52.512;13.450;2023-04-30T00:23:03;9.50;99.90
50556;DHT22;36508;52.512;13.450;2023-04-30T00:25:29;9.50;99.90
50556;DHT22;36508;52.512;13.450;2023-04-30T00:27:54;9.50;99.90
50556;DHT22;36508;52.512;13.450;2023-04-30T00:30:20;9.50;99.90
50556;DHT22;36508;52.512;13.450;2023-04-30T00:32:46;9.40;99.90
50556;DHT22;36508;52.512;13.450;2023-04-30T00:35:20;9.50;99.90
50556;DHT22;36508;52.512;13.450;2023-04-30T00:37:46;9.40;99.90
50556;DHT22;36508;52.512;13.450;2023-04-30T00:40:12;9.30;99.90
50556;DHT22;36508;52.512;13.450;2023-04-30T00:42:37;9.20;99.90
50556;DHT22;36508;52.512;13.450;2023-04-30T00:45:05;9.20;99.90
50556;DHT22;36508;52.512;13.450;2023-04-30T00:47:31;9.20;99.90
50556;DHT22;36508;52.512;13.450;2023-04-30T00:49:57;9.30;99.90
50556;DHT22;36508;52.512;13.450;2023-04-30T00:52:23;9.20;99.90
50556;DHT22;36508;52.512;13.450;2023-04-30T00:54:49;9.30;99.90
50556;DHT22;36508;52.512;13.450;2023-04-30T00:57:19;9.30;99.90
50556;DHT22;36508;52.512;13.450;2023-04-30T00:59:45;9.30;99.90
50556;DHT22;36508;52.512;13.450;2023-04-30T01:02:11;9.20;99.90
50556;DHT22;36508;52.512;13.450;2023-04-30T01:04:38;9.20;99.90
50556;DHT22;36508;52.512;13.450;2023-04-30T01:07:04;9.10;99.90
50556;DHT22;36508;52.512;13.450;2023-04-30T01:09:30;9.00;99.90
50556;DHT22;36508;52.512;13.450;2023-04-30T01:12:11;8.90;99.90
50556;DHT22;36508;52.512;13.450;2023-04-30T01:20:02;8.90;99.90
50556;DHT22;36508;52.512;13.450;2023-04-30T01:25:26;8.90;99.90
50556;DHT22;36508;52.512;13.450;2023-04-30T01:30:30;8.80;99.90
50556;DHT22;36508;52.512;13.450;2023-04-30T01:32:56;8.70;99.90
50556;DHT22;36508;52.512;13.450;2023-04-30T01:38:26;8.70;99.90
50556;DHT22;36508;52.512;13.450;2023-04-30T01:43:37;8.60;99.90
50556;DHT22;36508;52.512;13.450;2023-04-30T01:46:19;8.60;99.90
50556;DHT22;36508;52.512;13.450;2023-04-30T01:51:41;8.70;99.90
50556;DHT22;36508;52.512;13.450;2023-04-30T01:54:27;8.50;99.90
50556;DHT22;36508;52.512;13.450;2023-04-30T01:57:05;8.50;99.90
50556;DHT22;36508;52.512;13.450;2023-04-30T01:59:35;8.40;99.90
50556;DHT22;36508;52.512;13.450;2023-04-30T02:02:02;8.50;99.90
50556;DHT22;36508;52.512;13.450;2023-04-30T02:04:28;8.50;99.90
50556;DHT22;36508;52.512;13.450;2023-04-30T02:06:53;8.50;99.90
50556;DHT22;36508;52.512;13.450;2023-04-30T02:09:19;8.40;99.90
50556;DHT22;36508;52.512;13.450;2023-04-30T02:11:44;8.30;99.90
50556;DHT22;36508;52.512;13.450;2023-04-30T02:14:10;8.20;99.90
50556;DHT22;36508;52.512;13.450;2023-04-30T02:16:35;8.20;99.90
50556;DHT22;36508;52.512;13.450;2023-04-30T02:19:01;8.30;99.90
50556;DHT22;36508;52.512;13.450;2023-04-30T02:21:27;8.30;99.90
50556;DHT22;36508;52.512;13.450;2023-04-30T02:23:53;8.30;99.90
50556;DHT22;36508;52.512;13.450;2023-04-30T02:26:19;8.20;99.90
50556;DHT22;36508;52.512;13.450;2023-04-30T02:28:45;8.20;99.90
50556;DHT22;36508;52.512;13.450;2023-04-30T02:31:11;8.10;99.90
50556;DHT22;36508;52.512;13.450;2023-04-30T02:33:36;8.00;99.90
50556;DHT22;36508;52.512;13.450;2023-04-30T02:36:02;8.10;99.90
50556;DHT22;36508;52.512;13.450;2023-04-30T02:38:28;8.00;99.90
50556;DHT22;36508;52.512;13.450;2023-04-30T02:40:54;8.00;99.90
50556;DHT22;36508;52.512;13.450;2023-04-30T02:43:19;7.90;99.90
50556;DHT22;36508;52.512;13.450;2023-04-30T02:45:45;7.90;99.90
50556;DHT22;36508;52.512;13.450;2023-04-30T02:48:11;7.90;99.90
50556;DHT22;36508;52.512;13.450;2023-04-30T02:50:36;7.90;99.90
50556;DHT22;36508;52.512;13.450;2023-04-30T02:53:02;8.00;99.90
50556;DHT22;36508;52.512;13.450;2023-04-30T02:55:27;7.90;99.90
50556;DHT22;36508;52.512;13.450;2023-04-30T02:57:53;8.00;99.90
50556;DHT22;36508;52.512;13.450;2023-04-30T03:00:19;8.00;99.90
50556;DHT22;36508;52.512;13.450;2023-04-30T03:02:44;7.80;99.90
50556;DHT22;36508;52.512;13.450;2023-04-30T03:05:11;7.80;99.90
50556;DHT22;36508;52.512;13.450;2023-04-30T03:07:37;7.80;99.90
50556;DHT22;36508;52.512;13.450;2023-04-30T03:10:03;7.70;99.90
50556;DHT22;36508;52.512;13.450;2023-04-30T03:12:29;7.70;99.90
50556;DHT22;36508;52.512;13.450;2023-04-30T03:14:55;7.60;99.90
50556;DHT22;36508;52.512;13.450;2023-04-30T03:17:20;7.60;99.90
50556;DHT22;36508;52.512;13.450;2023-04-30T03:19:46;7.50;99.90
50556;DHT22;36508;52.512;13.450;2023-04-30T03:22:12;7.40;99.90
50556;DHT22;36508;52.512;13.450;2023-04-30T03:24:37;7.30;99.90
50556;DHT22;36508;52.512;13.450;2023-04-30T03:27:03;7.40;99.90
50556;DHT22;36508;52.512;13.450;2023-04-30T03:29:28;7.40;99.90
50556;DHT22;36508;52.512;13.450;2023-04-30T03:31:54;7.40;99.90
50556;DHT22;36508;52.512;13.450;2023-04-30T03:34:19;7.30;99.90
50556;DHT22;36508;52.512;13.450;2023-04-30T03:36:45;7.30;99.90
50556;DHT22;36508;52.512;13.450;2023-04-30T03:39:11;7.30;99.90
50556;DHT22;36508;52.512;13.450;2023-04-30T03:41:36;7.20;99.90
50556;DHT22;36508;52.512;13.450;2023-04-30T03:44:02;7.20;99.90
50556;DHT22;36508;52.512;13.450;2023-04-30T03:46:27;7.10;99.90
50556;DHT22;36508;52.512;13.450;2023-04-30T03:48:53;7.10;99.90
50556;DHT22;36508;52.512;13.450;2023-04-30T03:51:22;7.20;99.90
50556;DHT22;36508;52.512;13.450;2023-04-30T03:53:47;7.10;99.90
50556;DHT22;36508;52.512;13.450;2023-04-30T03:56:13;7.00;99.90
50556;DHT22;36508;52.512;13.450;2023-04-30T03:58:39;7.10;99.90
50556;DHT22;36508;52.512;13.450;2023-04-30T04:01:05;7.10;99.90
50556;DHT22;36508;52.512;13.450;2023-04-30T04:03:31;7.10;99.90
50556;DHT22;36508;52.512;13.450;2023-04-30T04:05:58;7.20;99.90
50556;DHT22;36508;52.512;13.450;2023-04-30T04:08:23;7.10;99.90
50556;DHT22;36508;52.512;13.450;2023-04-30T04:10:49;7.10;99.90
50556;DHT22;36508;52.512;13.450;2023-04-30T04:13:14;7.20;99.90
50556;DHT22;36508;52.512;13.450;2023-04-30T04:15:40;7.20;99.90
50556;DHT22;36508;52.512;13.450;2023-04-30T04:18:06;7.10;99.90
50556;DHT22;36508;52.512;13.450;2023-04-30T04:20:32;7.10;99.90
50556;DHT22;36508;52.512;13.450;2023-04-30T04:22:58;7.10;99.90
50556;DHT22;36508;52.512;13.450;2023-04-30T04:25:23;7.10;99.90
50556;DHT22;36508;52.512;13.450;2023-04-30T04:27:50;7.10;99.90
50556;DHT22;36508;52.512;13.450;2023-04-30T04:30:17;7.10;99.90
50556;DHT22;36508;52.512;13.450;2023-04-30T04:32:42;7.00;99.90
50556;DHT22;36508;52.512;13.450;2023-04-30T04:35:14;7.00;99.90
50556;DHT22;36508;52.512;13.450;2023-04-30T04:37:39;7.00;99.90
50556;DHT22;36508;52.512;13.450;2023-04-30T04:40:06;6.90;99.90
50556;DHT22;36508;52.512;13.450;2023-04-30T04:42:32;7.00;99.90
50556;DHT22;36508;52.512;13.450;2023-04-30T04:44:57;6.90;99.90
50556;DHT22;36508;52.512;13.450;2023-04-30T04:47:23;6.90;99.90
50556;DHT22;36508;52.512;13.450;2023-04-30T04:49:48;6.90;99.90
50556;DHT22;36508;52.512;13.450;2023-04-30T04:52:14;7.10;99.90
50556;DHT22;36508;52.512;13.450;2023-04-30T04:54:40;7.00;99.90
50556;DHT22;36508;52.512;13.450;2023-04-30T04:57:05;7.00;99.90
50556;DHT22;36508;52.512;13.450;2023-04-30T04:59:31;7.00;99.90
50556;DHT22;36508;52.512;13.450;2023-04-30T05:01:56;7.00;99.90
50556;DHT22;36508;52.512;13.450;2023-04-30T05:04:22;7.10;99.90
50556;DHT22;36508;52.512;13.450;2023-04-30T05:06:47;7.40;99.90
50556;DHT22;36508;52.512;13.450;2023-04-30T05:09:13;7.60;99.90
50556;DHT22;36508;52.512;13.450;2023-04-30T05:11:40;7.70;99.90
50556;DHT22;36508;52.512;13.450;2023-04-30T05:14:06;7.50;99.90
50556;DHT22;36508;52.512;13.450;2023-04-30T05:16:32;7.30;99.90
50556;DHT22;36508;52.512;13.450;2023-04-30T05:18:57;7.20;99.90
50556;DHT22;36508;52.512;13.450;2023-04-30T05:21:23;7.20;99.90
50556;DHT22;36508;52.512;13.450;2023-04-30T05:23:54;7.20;99.90
50556;DHT22;36508;52.512;13.450;2023-04-30T05:26:19;7.20;99.90
50556;DHT22;36508;52.512;13.450;2023-04-30T05:28:45;7.30;99.90
50556;DHT22;36508;52.512;13.450;2023-04-30T05:31:11;7.20;99.90
50556;DHT22;36508;52.512;13.450;2023-04-30T05:33:36;7.30;99.90
50556;DHT22;36508;52.512;13.450;2023-04-30T05:36:02;7.20;99.90
50556;DHT22;36508;52.512;13.450;2023-04-30T05:38:28;7.20;99.90
50556;DHT22;36508;52.512;13.450;2023-04-30T05:40:53;7.20;99.90
50556;DHT22;36508;52.512;13.450;2023-04-30T05:43:19;7.20;99.90
50556;DHT22;36508;52.512;13.450;2023-04-30T05:45:44;7.20;99.90
50556;DHT22;36508;52.512;13.450;2023-04-30T05:48:10;7.20;99.90
50556;DHT22;36508;52.512;13.450;2023-04-30T05:50:36;7.20;99.90
50556;DHT22;36508;52.512;13.450;2023-04-30T05:53:01;7.30;99.90
50556;DHT22;36508;52.512;13.450;2023-04-30T05:55:27;7.30;99.90
50556;DHT22;36508;52.512;13.450;2023-04-30T05:57:54;7.40;99.90
50556;DHT22;36508;52.512;13.450;2023-04-30T06:00:19;7.40;99.90
50556;DHT22;36508;52.512;13.450;2023-04-30T06:02:45;7.50;99.90
50556;DHT22;36508;52.512;13.450;2023-04-30T06:05:10;7.50;99.90
50556;DHT22;36508;52.512;13.450;2023-04-30T06:07:36;7.50;99.90
50556;DHT22;36508;52.512;13.450;2023-04-30T06:10:02;7.40;99.90
50556;DHT22;36508;52.512;13.450;2023-04-30T06:12:28;7.50;99.90
50556;DHT22;36508;52.512;13.450;2023-04-30T06:14:53;7.60;99.90
50556;DHT22;36508;52.512;13.450;2023-04-30T06:17:19;7.70;99.90
50556;DHT22;36508;52.512;13.450;2023-04-30T06:19:45;7.70;99.90
50556;DHT22;36508;52.512;13.450;2023-04-30T06:22:11;7.70;99.90
50556;DHT22;36508;52.512;13.450;2023-04-30T06:24:36;7.70;99.90
50556;DHT22;36508;52.512;13.450;2023-04-30T06:27:02;7.70;99.90
50556;DHT22;36508;52.512;13.450;2023-04-30T06:29:28;7.70;99.90
50556;DHT22;36508;52.512;13.450;2023-04-30T06:31:53;7.80;99.90
50556;DHT22;36508;52.512;13.450;2023-04-30T06:34:19;7.90;99.90
50556;DHT22;36508;52.512;13.450;2023-04-30T06:36:45;7.90;99.90
50556;DHT22;36508;52.512;13.450;2023-04-30T06:39:14;7.90;99.90
50556;DHT22;36508;52.512;13.450;2023-04-30T06:41:39;7.80;99.90
50556;DHT22;36508;52.512;13.450;2023-04-30T06:44:05;7.80;99.90
50556;DHT22;36508;52.512;13.450;2023-04-30T06:46:31;7.90;99.90
50556;DHT22;36508;52.512;13.450;2023-04-30T06:48:56;7.90;99.90
50556;DHT22;36508;52.512;13.450;2023-04-30T06:51:22;8.00;99.90
50556;DHT22;36508;52.512;13.450;2023-04-30T06:53:47;8.00;99.90
50556;DHT22;36508;52.512;13.450;2023-04-30T06:56:13;8.10;99.90
50556;DHT22;36508;52.512;13.450;2023-04-30T06:58:38;8.00;99.90
50556;DHT22;36508;52.512;13.450;2023-04-30T07:01:04;8.20;99.90
50556;DHT22;36508;52.512;13.450;2023-04-30T07:03:30;8.30;99.90
50556;DHT22;36508;52.512;13.450;2023-04-30T07:05:55;8.30;99.90
50556;DHT22;36508;52.512;13.450;2023-04-30T07:08:21;8.30;99.90
50556;DHT22;36508;52.512;13.450;2023-04-30T07:10:47;8.30;99.90
50556;DHT22;36508;52.512;13.450;2023-04-30T07:13:12;8.20;99.90
50556;DHT22;36508;52.512;13.450;2023-04-30T07:15:38;8.20;99.90
50556;DHT22;36508;52.512;13.450;2023-04-30T07:18:04;8.30;99.90
50556;DHT22;36508;52.512;13.450;2023-04-30T07:20:29;8.30;99.90
50556;DHT22;36508;52.512;13.450;2023-04-30T07:22:55;8.40;99.90
50556;DHT22;36508;52.512;13.450;2023-04-30T07:25:20;8.40;99.90
50556;DHT22;36508;52.512;13.450;2023-04-30T07:27:47;8.40;99.90
50556;DHT22;36508;52.512;13.450;2023-04-30T07:30:13;8.30;99.90
50556;DHT22;36508;52.512;13.450;2023-04-30T07:32:38;8.30;99.90
50556;DHT22;36508;52.512;13.450;2023-04-30T07:35:06;8.20;99.90
50556;DHT22;36508;52.512;13.450;2023-04-30T07:37:31;8.30;99.90
50556;DHT22;36508;52.512;13.450;2023-04-30T07:39:57;8.40;99.90
50556;DHT22;36508;52.512;13.450;2023-04-30T07:42:23;8.40;99.90
50556;DHT22;36508;52.512;13.450;2023-04-30T07:44:48;8.40;99.90
50556;DHT22;36508;52.512;13.450;2023-04-30T07:47:14;8.50;99.90
50556;DHT22;36508;52.512;13.450;2023-04-30T07:49:40;8.60;99.90
50556;DHT22;36508;52.512;13.450;2023-04-30T07:52:06;8.50;99.90
50556;DHT22;36508;52.512;13.450;2023-04-30T07:54:35;8.60;99.90
50556;DHT22;36508;52.512;13.450;2023-04-30T07:57:03;8.70;99.90
50556;DHT22;36508;52.512;13.450;2023-04-30T07:59:29;8.60;99.90
50556;DHT22;36508;52.512;13.450;2023-04-30T08:01:55;8.60;99.90
50556;DHT22;36508;52.512;13.450;2023-04-30T08:04:21;8.70;99.90
50556;DHT22;36508;52.512;13.450;2023-04-30T08:06:46;8.60;99.90
50556;DHT22;36508;52.512;13.450;2023-04-30T08:09:12;8.70;99.90
50556;DHT22;36508;52.512;13.450;2023-04-30T08:11:37;8.70;99.90
50556;DHT22;36508;52.512;13.450;2023-04-30T08:14:03;8.80;99.90
50556;DHT22;36508;52.512;13.450;2023-04-30T08:16:29;8.90;99.90
50556;DHT22;36508;52.512;13.450;2023-04-30T08:18:55;8.90;99.90
50556;DHT22;36508;52.512;13.450;2023-04-30T08:21:21;8.90;99.90
50556;DHT22;36508;52.512;13.450;2023-04-30T08:23:47;8.90;99.90
50556;DHT22;36508;52.512;13.450;2023-04-30T08:26:12;9.00;99.90
50556;DHT22;36508;52.512;13.450;2023-04-30T08:28:38;8.90;99.90
50556;DHT22;36508;52.512;13.450;2023-04-30T08:31:03;8.90;99.90
50556;DHT22;36508;52.512;13.450;2023-04-30T08:33:29;8.80;99.90
50556;DHT22;36508;52.512;13.450;2023-04-30T08:35:56;8.90;99.90
50556;DHT22;36508;52.512;13.450;2023-04-30T08:38:22;8.90;99.90
50556;DHT22;36508;52.512;13.450;2023-04-30T08:40:54;9.00;99.90
50556;DHT22;36508;52.512;13.450;2023-04-30T08:43:21;9.20;99.90
50556;DHT22;36508;52.512;13.450;2023-04-30T08:45:49;9.30;99.90
50556;DHT22;36508;52.512;13.450;2023-04-30T08:48:16;9.40;99.90
50556;DHT22;36508;52.512;13.450;2023-04-30T08:50:43;9.50;99.90
50556;DHT22;36508;52.512;13.450;2023-04-30T08:53:10;9.40;99.90
50556;DHT22;36508;52.512;13.450;2023-04-30T08:55:38;9.20;99.90
50556;DHT22;36508;52.512;13.450;2023-04-30T08:58:04;9.10;99.90
50556;DHT22;36508;52.512;13.450;2023-04-30T09:00:31;9.20;99.90
50556;DHT22;36508;52.512;13.450;2023-04-30T09:02:59;9.40;99.90
50556;DHT22;36508;52.512;13.450;2023-04-30T09:05:25;9.50;99.90
50556;DHT22;36508;52.512;13.450;2023-04-30T09:07:51;9.50;99.90
50556;DHT22;36508;52.512;13.450;2023-04-30T09:10:19;9.60;99.90
50556;DHT22;36508;52.512;13.450;2023-04-30T09:13:02;9.60;99.90
50556;DHT22;36508;52.512;13.450;2023-04-30T09:15:28;9.60;99.90
50556;DHT22;36508;52.512;13.450;2023-04-30T09:18:11;9.80;99.90
50556;DHT22;36508;52.512;13.450;2023-04-30T09:20:38;9.90;99.90
50556;DHT22;36508;52.512;13.450;2023-04-30T09:23:17;10.00;99.90
50556;DHT22;36508;52.512;13.450;2023-04-30T09:25:43;10.00;99.90
50556;DHT22;36508;52.512;13.450;2023-04-30T09:28:12;10.20;99.90
50556;DHT22;36508;52.512;13.450;2023-04-30T09:30:42;10.20;99.90
50556;DHT22;36508;52.512;13.450;2023-04-30T09:33:08;10.30;99.90
50556;DHT22;36508;52.512;13.450;2023-04-30T09:35:35;10.40;99.90
50556;DHT22;36508;52.512;13.450;2023-04-30T09:38:02;10.50;99.90
50556;DHT22;36508;52.512;13.450;2023-04-30T09:40:38;10.60;99.90
50556;DHT22;36508;52.512;13.450;2023-04-30T09:43:05;10.70;99.90
50556;DHT22;36508;52.512;13.450;2023-04-30T09:45:45;10.90;99.90
50556;DHT22;36508;52.512;13.450;2023-04-30T09:48:14;10.90;99.90
50556;DHT22;36508;52.512;13.450;2023-04-30T09:50:40;10.70;99.90
50556;DHT22;36508;52.512;13.450;2023-04-30T09:53:08;10.80;99.90
50556;DHT22;36508;52.512;13.450;2023-04-30T09:55:34;10.70;99.90
50556;DHT22;36508;52.512;13.450;2023-04-30T09:58:04;10.80;99.90
50556;DHT22;36508;52.512;13.450;2023-04-30T10:00:31;10.90;99.90
50556;DHT22;36508;52.512;13.450;2023-04-30T10:02:58;11.00;99.90
50556;DHT22;36508;52.512;13.450;2023-04-30T10:05:26;11.20;99.90
50556;DHT22;36508;52.512;13.450;2023-04-30T10:07:52;11.30;99.90
50556;DHT22;36508;52.512;13.450;2023-04-30T10:10:19;11.50;99.90
50556;DHT22;36508;52.512;13.450;2023-04-30T10:12:55;11.80;99.90
50556;DHT22;36508;52.512;13.450;2023-04-30T10:15:31;11.90;99.90
50556;DHT22;36508;52.512;13.450;2023-04-30T10:18:05;12.00;99.90
50556;DHT22;36508;52.512;13.450;2023-04-30T10:20:35;12.10;99.90
50556;DHT22;36508;52.512;13.450;2023-04-30T10:23:04;12.10;99.20
50556;DHT22;36508;52.512;13.450;2023-04-30T10:25:31;12.10;99.70
50556;DHT22;36508;52.512;13.450;2023-04-30T10:27:57;12.30;99.90
50556;DHT22;36508;52.512;13.450;2023-04-30T10:30:23;12.50;99.90
50556;DHT22;36508;52.512;13.450;2023-04-30T10:32:58;12.90;98.60
50556;DHT22;36508;52.512;13.450;2023-04-30T10:35:34;14.70;96.80
50556;DHT22;36508;52.512;13.450;2023-04-30T10:38:17;17.40;90.80
50556;DHT22;36508;52.512;13.450;2023-04-30T10:40:46;16.30;81.40
50556;DHT22;36508;52.512;13.450;2023-04-30T10:43:12;16.90;82.40
50556;DHT22;36508;52.512;13.450;2023-04-30T10:45:42;17.90;81.80
50556;DHT22;36508;52.512;13.450;2023-04-30T10:48:08;19.70;77.40
50556;DHT22;36508;52.512;13.450;2023-04-30T10:50:41;21.00;71.30
50556;DHT22;36508;52.512;13.450;2023-04-30T10:53:11;21.70;65.80
50556;DHT22;36508;52.512;13.450;2023-04-30T10:55:46;22.50;62.50
50556;DHT22;36508;52.512;13.450;2023-04-30T10:58:29;23.30;59.90
50556;DHT22;36508;52.512;13.450;2023-04-30T11:01:16;24.90;57.50
50556;DHT22;36508;52.512;13.450;2023-04-30T11:04:03;24.70;54.30
50556;DHT22;36508;52.512;13.450;2023-04-30T11:07:08;24.50;52.40
50556;DHT22;36508;52.512;13.450;2023-04-30T11:09:41;24.60;52.10
50556;DHT22;36508;52.512;13.450;2023-04-30T11:12:11;25.20;49.20
50556;DHT22;36508;52.512;13.450;2023-04-30T11:14:43;24.90;49.40
50556;DHT22;36508;52.512;13.450;2023-04-30T11:17:21;26.00;48.30
50556;DHT22;36508;52.512;13.450;2023-04-30T11:19:49;27.40;47.30
50556;DHT22;36508;52.512;13.450;2023-04-30T11:24:50;26.20;43.90
50556;DHT22;36508;52.512;13.450;2023-04-30T11:27:53;24.10;45.80
50556;DHT22;36508;52.512;13.450;2023-04-30T11:30:16;24.90;46.60
50556;DHT22;36508;52.512;13.450;2023-04-30T11:32:45;26.40;45.60
50556;DHT22;36508;52.512;13.450;2023-04-30T11:35:12;27.90;44.10
50556;DHT22;36508;52.512;13.450;2023-04-30T11:37:42;27.70;43.70
50556;DHT22;36508;52.512;13.450;2023-04-30T11:40:10;27.60;42.90
50556;DHT22;36508;52.512;13.450;2023-04-30T11:42:38;26.30;42.20
50556;DHT22;36508;52.512;13.450;2023-04-30T11:50:15;27.60;42.60
50556;DHT22;36508;52.512;13.450;2023-04-30T11:52:42;25.90;42.60
50556;DHT22;36508;52.512;13.450;2023-04-30T11:55:15;25.30;43.40
50556;DHT22;36508;52.512;13.450;2023-04-30T11:57:45;24.10;44.50
50556;DHT22;36508;52.512;13.450;2023-04-30T12:00:13;23.50;44.10
50556;DHT22;36508;52.512;13.450;2023-04-30T12:02:43;21.10;46.10
50556;DHT22;36508;52.512;13.450;2023-04-30T12:05:20;19.60;47.60
50556;DHT22;36508;52.512;13.450;2023-04-30T12:07:54;19.90;49.00
50556;DHT22;36508;52.512;13.450;2023-04-30T12:10:21;19.50;47.40
50556;DHT22;36508;52.512;13.450;2023-04-30T12:12:48;19.40;48.00
50556;DHT22;36508;52.512;13.450;2023-04-30T12:15:18;18.90;48.50
50556;DHT22;36508;52.512;13.450;2023-04-30T12:17:45;19.00;49.40
50556;DHT22;36508;52.512;13.450;2023-04-30T12:20:14;20.00;49.30
50556;DHT22;36508;52.512;13.450;2023-04-30T12:22:41;19.80;49.30
50556;DHT22;36508;52.512;13.450;2023-04-30T12:25:12;21.00;48.90
50556;DHT22;36508;52.512;13.450;2023-04-30T12:27:40;22.00;47.90
50556;DHT22;36508;52.512;13.450;2023-04-30T12:30:06;20.90;47.50
50556;DHT22;36508;52.512;13.450;2023-04-30T12:32:42;20.10;48.00
50556;DHT22;36508;52.512;13.450;2023-04-30T12:35:13;20.20;49.20
50556;DHT22;36508;52.512;13.450;2023-04-30T12:37:44;20.90;49.30
50556;DHT22;36508;52.512;13.450;2023-04-30T12:40:13;22.30;49.00
50556;DHT22;36508;52.512;13.450;2023-04-30T12:42:41;22.70;48.60
50556;DHT22;36508;52.512;13.450;2023-04-30T12:45:08;23.10;47.50
50556;DHT22;36508;52.512;13.450;2023-04-30T12:47:40;21.10;47.80
50556;DHT22;36508;52.512;13.450;2023-04-30T12:52:33;20.00;49.60
50556;DHT22;36508;52.512;13.450;2023-04-30T12:55:16;19.80;49.90
50556;DHT22;36508;52.512;13.450;2023-04-30T12:58:15;19.50;50.40
50556;DHT22;36508;52.512;13.450;2023-04-30T13:00:49;19.30;51.20
50556;DHT22;36508;52.512;13.450;2023-04-30T13:03:16;19.80;51.80
50556;DHT22;36508;52.512;13.450;2023-04-30T13:05:46;20.20;51.30
50556;DHT22;36508;52.512;13.450;2023-04-30T13:08:13;21.30;50.60
50556;DHT22;36508;52.512;13.450;2023-04-30T13:10:38;23.10;49.80
50556;DHT22;36508;52.512;13.450;2023-04-30T13:13:05;23.70;48.80
50556;DHT22;36508;52.512;13.450;2023-04-30T13:15:30;24.20;48.40
50556;DHT22;36508;52.512;13.450;2023-04-30T13:17:56;23.50;47.50
50556;DHT22;36508;52.512;13.450;2023-04-30T13:20:23;23.70;47.80
50556;DHT22;36508;52.512;13.450;2023-04-30T13:22:50;23.30;48.60
50556;DHT22;36508;52.512;13.450;2023-04-30T13:25:16;23.20;48.20
50556;DHT22;36508;52.512;13.450;2023-04-30T13:27:42;22.20;47.70
50556;DHT22;36508;52.512;13.450;2023-04-30T13:30:09;20.70;49.60
50556;DHT22;36508;52.512;13.450;2023-04-30T13:32:34;20.60;50.10
50556;DHT22;36508;52.512;13.450;2023-04-30T13:35:01;20.80;50.10
50556;DHT22;36508;52.512;13.450;2023-04-30T13:37:27;20.70;50.70
50556;DHT22;36508;52.512;13.450;2023-04-30T13:39:53;20.10;50.60
50556;DHT22;36508;52.512;13.450;2023-04-30T13:42:18;19.60;51.90
50556;DHT22;36508;52.512;13.450;2023-04-30T13:44:44;20.50;52.10
50556;DHT22;36508;52.512;13.450;2023-04-30T13:47:10;20.90;51.50
50556;DHT22;36508;52.512;13.450;2023-04-30T13:49:36;21.40;51.40
50556;DHT22;36508;52.512;13.450;2023-04-30T13:52:04;21.10;51.90
50556;DHT22;36508;52.512;13.450;2023-04-30T13:54:30;21.10;50.90
50556;DHT22;36508;52.512;13.450;2023-04-30T13:56:57;21.30;51.20
50556;DHT22;36508;52.512;13.450;2023-04-30T13:59:24;21.40;51.00
50556;DHT22;36508;52.512;13.450;2023-04-30T14:01:50;21.40;50.70
50556;DHT22;36508;52.512;13.450;2023-04-30T14:04:15;21.30;51.40
50556;DHT22;36508;52.512;13.450;2023-04-30T14:06:41;21.30;51.70
50556;DHT22;36508;52.512;13.450;2023-04-30T14:09:07;21.30;51.60
50556;DHT22;36508;52.512;13.450;2023-04-30T14:11:33;20.90;52.10
50556;DHT22;36508;52.512;13.450;2023-04-30T14:13:58;21.50;52.10
50556;DHT22;36508;52.512;13.450;2023-04-30T14:16:24;21.40;51.20
50556;DHT22;36508;52.512;13.450;2023-04-30T14:18:50;21.00;51.10
50556;DHT22;36508;52.512;13.450;2023-04-30T14:21:16;20.20;51.50
50556;DHT22;36508;52.512;13.450;2023-04-30T14:23:41;19.60;51.00
50556;DHT22;36508;52.512;13.450;2023-04-30T14:26:10;19.50;52.40
50556;DHT22;36508;52.512;13.450;2023-04-30T14:28:36;19.40;52.40
50556;DHT22;36508;52.512;13.450;2023-04-30T14:31:02;19.60;53.50
50556;DHT22;36508;52.512;13.450;2023-04-30T14:33:28;20.20;52.80
50556;DHT22;36508;52.512;13.450;2023-04-30T14:35:53;20.20;52.90
50556;DHT22;36508;52.512;13.450;2023-04-30T14:38:19;19.90;52.00
50556;DHT22;36508;52.512;13.450;2023-04-30T14:40:45;19.80;52.10
50556;DHT22;36508;52.512;13.450;2023-04-30T14:43:11;19.80;52.20
50556;DHT22;36508;52.512;13.450;2023-04-30T14:45:37;19.40;52.30
50556;DHT22;36508;52.512;13.450;2023-04-30T14:48:04;19.30;52.30
50556;DHT22;36508;52.512;13.450;2023-04-30T14:50:29;19.00;53.10
50556;DHT22;36508;52.512;13.450;2023-04-30T14:52:55;19.20;53.00
50556;DHT22;36508;52.512;13.450;2023-04-30T14:55:21;19.50;52.50
50556;DHT22;36508;52.512;13.450;2023-04-30T14:57:47;20.20;52.30
50556;DHT22;36508;52.512;13.450;2023-04-30T15:00:13;20.20;51.40
50556;DHT22;36508;52.512;13.450;2023-04-30T15:02:40;20.60;52.00
50556;DHT22;36508;52.512;13.450;2023-04-30T15:05:06;21.30;51.50
50556;DHT22;36508;52.512;13.450;2023-04-30T15:07:33;21.60;49.70
50556;DHT22;36508;52.512;13.450;2023-04-30T15:09:58;21.50;50.20
50556;DHT22;36508;52.512;13.450;2023-04-30T15:12:24;22.20;49.20
50556;DHT22;36508;52.512;13.450;2023-04-30T15:14:49;22.50;48.70
50556;DHT22;36508;52.512;13.450;2023-04-30T15:17:15;22.60;48.10
50556;DHT22;36508;52.512;13.450;2023-04-30T15:19:41;22.10;47.90
50556;DHT22;36508;52.512;13.450;2023-04-30T15:22:06;21.90;47.90
50556;DHT22;36508;52.512;13.450;2023-04-30T15:24:32;22.10;48.50
50556;DHT22;36508;52.512;13.450;2023-04-30T15:26:58;21.30;48.60
50556;DHT22;36508;52.512;13.450;2023-04-30T15:29:24;21.80;48.50
50556;DHT22;36508;52.512;13.450;2023-04-30T15:31:50;22.10;48.10
50556;DHT22;36508;52.512;13.450;2023-04-30T15:34:21;22.70;47.90
50556;DHT22;36508;52.512;13.450;2023-04-30T15:36:48;22.20;47.30
50556;DHT22;36508;52.512;13.450;2023-04-30T15:39:14;22.70;47.70
50556;DHT22;36508;52.512;13.450;2023-04-30T15:41:39;22.70;47.20
50556;DHT22;36508;52.512;13.450;2023-04-30T15:44:05;22.80;47.20
50556;DHT22;36508;52.512;13.450;2023-04-30T15:46:31;22.90;47.50
50556;DHT22;36508;52.512;13.450;2023-04-30T15:48:58;22.90;47.30
50556;DHT22;36508;52.512;13.450;2023-04-30T15:51:23;23.20;47.00
50556;DHT22;36508;52.512;13.450;2023-04-30T15:53:49;23.30;47.40
50556;DHT22;36508;52.512;13.450;2023-04-30T15:56:14;24.30;46.30